Time;durP1;ratioP1;P1;durP2;ratioP2;P2;SDS_P1;SDS_P2;PMS_P1;PMS_P2;Temp;Humidity;BMP_temperature;BMP_pressure;BME280_temperature;BME280_humidity;BME280_pressure;Samples;Min_cycle;Max_cycle;Signal;HPM_P1;HPM_P2
2022/03/20 00:00:13;;;;;;;;;;;;;;;17.29;42.31;103642.34;6312178;22;19942;-77
2022/03/20 00:02:40;;;;;;;;;;;;;;;17.30;42.04;103630.19;6313000;22;19946;-82
2022/03/20 00:05:05;;;;;;;;;;;;;;;17.28;42.17;103641.41;6313089;22;20233;-82
2022/03/20 00:07:33;;;;;;;;;;;;;;;17.28;42.05;103628.41;6313795;22;19964;-82
2022/03/20 00:09:58;;;;;;;;;;;;;;;17.27;42.09;103623.16;6341453;22;19910;-83
2022/03/20 00:12:23;;;;;;;;;;;;;;;17.28;41.92;103622.31;6313863;22;19918;-83
2022/03/20 00:14:48;;;;;;;;;;;;;;;17.27;42.09;103624.06;6340959;22;19906;-82
2022/03/20 00:17:14;;;;;;;;;;;;;;;17.28;42.05;103611.91;6341142;22;19920;-82
2022/03/20 00:19:39;;;;;;;;;;;;;;;17.28;41.98;103620.59;6287262;22;19911;-82
2022/03/20 00:22:05;;;;;;;;;;;;;;;17.27;42.01;103617.97;6340762;22;19946;-83
2022/03/20 00:24:30;;;;;;;;;;;;;;;17.27;42.06;103615.38;6287211;22;19959;-82
2022/03/20 00:26:57;;;;;;;;;;;;;;;17.26;41.99;103617.06;6340565;22;19982;-82
2022/03/20 00:29:25;;;;;;;;;;;;;;;17.27;42.17;103605.84;6313062;22;20342;-82
2022/03/20 00:31:51;;;;;;;;;;;;;;;17.26;41.97;103617.06;6287366;22;19942;-81
2022/03/20 00:34:16;;;;;;;;;;;;;;;17.26;42.05;103603.16;6313224;22;19972;-82
2022/03/20 00:36:41;;;;;;;;;;;;;;;17.26;42.03;103600.56;6312803;22;19906;-82
2022/03/20 00:39:07;;;;;;;;;;;;;;;17.25;42.15;103602.28;6313566;22;19993;-82
2022/03/20 00:41:32;;;;;;;;;;;;;;;17.25;42.03;103596.22;6318080;22;19934;-82
2022/03/20 00:43:59;;;;;;;;;;;;;;;17.25;41.90;103591.00;6345910;22;19911;-82
2022/03/20 00:46:24;;;;;;;;;;;;;;;17.25;42.15;103583.19;6319218;22;19911;-82
2022/03/20 00:48:49;;;;;;;;;;;;;;;17.23;42.08;103580.53;6313858;22;19917;-83
2022/03/20 00:51:14;;;;;;;;;;;;;;;17.24;41.94;103578.81;6313003;22;20003;-83
2022/03/20 00:53:40;;;;;;;;;;;;;;;17.24;41.95;103590.09;6313331;22;19910;-82
2022/03/20 00:56:05;;;;;;;;;;;;;;;17.23;42.03;103583.13;6340530;22;20342;-82
2022/03/20 00:58:30;;;;;;;;;;;;;;;17.23;42.00;103570.13;6340572;22;19942;-82
2022/03/20 01:00:56;;;;;;;;;;;;;;;17.23;42.05;103572.72;6340384;22;20012;-82
2022/03/20 01:03:21;;;;;;;;;;;;;;;17.23;41.92;103562.31;6340360;22;19911;-77
2022/03/20 01:05:46;;;;;;;;;;;;;;;17.21;42.01;103561.38;6312426;22;19950;-77
2022/03/20 01:08:11;;;;;;;;;;;;;;;17.21;42.05;103550.09;6286197;22;19917;-77
2022/03/20 01:10:37;;;;;;;;;;;;;;;17.22;41.95;103546.63;6312374;22;19911;-77
2022/03/20 01:13:02;;;;;;;;;;;;;;;17.22;42.08;103544.94;6314000;22;19903;-78
2022/03/20 01:15:27;;;;;;;;;;;;;;;17.21;41.94;103540.53;6314084;22;19921;-77
2022/03/20 01:17:53;;;;;;;;;;;;;;;17.21;41.88;103531.88;6288803;22;19997;-82
2022/03/20 01:20:18;;;;;;;;;;;;;;;17.20;42.01;103535.28;6288747;22;19940;-82
2022/03/20 01:22:43;;;;;;;;;;;;;;;17.20;42.02;103543.09;6341711;22;19922;-82
2022/03/20 01:25:09;;;;;;;;;;;;;;;17.19;41.85;103531.81;6314780;22;19983;-82
2022/03/20 01:27:35;;;;;;;;;;;;;;;17.18;42.00;103527.44;6314497;22;19934;-82
2022/03/20 01:30:00;;;;;;;;;;;;;;;17.18;41.97;103522.25;6314917;22;19956;-82
2022/03/20 01:32:28;;;;;;;;;;;;;;;17.18;41.90;103518.72;6341781;22;19932;-78
2022/03/20 01:34:53;;;;;;;;;;;;;;;17.18;42.03;103516.13;6314093;22;19906;-77
2022/03/20 01:37:18;;;;;;;;;;;;;;;17.18;41.90;103510.91;6342315;22;19906;-77
2022/03/20 01:39:44;;;;;;;;;;;;;;;17.18;41.83;103516.13;6288765;22;20239;-82
2022/03/20 01:42:09;;;;;;;;;;;;;;;17.17;41.78;103504.84;6314622;22;19917;-82
2022/03/20 01:44:35;;;;;;;;;;;;;;;17.16;41.97;103494.38;6289030;22;19910;-83
2022/03/20 01:47:00;;;;;;;;;;;;;;;17.15;41.91;103485.69;6314456;22;19965;-82
2022/03/20 01:49:26;;;;;;;;;;;;;;;17.16;41.82;103484.88;6342210;22;19911;-82
2022/03/20 01:52:10;;;;;;;;;;;;;;;17.15;41.87;103484.81;6342709;22;19906;-82
2022/03/20 01:54:35;;;;;;;;;;;;;;;17.15;41.72;103485.69;6316484;22;19930;-81
2022/03/20 01:57:01;;;;;;;;;;;;;;;17.15;41.82;103479.59;6290834;22;19911;-82
2022/03/20 01:59:26;;;;;;;;;;;;;;;17.14;41.73;103475.25;6315946;22;20238;-82
2022/03/20 02:01:51;;;;;;;;;;;;;;;17.14;41.87;103476.13;6343778;22;19914;-82
2022/03/20 02:04:16;;;;;;;;;;;;;;;17.14;41.80;103470.03;6317005;22;19911;-82
2022/03/20 02:06:42;;;;;;;;;;;;;;;17.13;41.78;103465.66;6345175;22;19922;-82
2022/03/20 02:09:08;;;;;;;;;;;;;;;17.12;41.85;103464.78;6345444;22;19906;-83
2022/03/20 02:11:33;;;;;;;;;;;;;;;17.13;41.86;103457.84;6345494;22;19911;-81
2022/03/20 02:13:59;;;;;;;;;;;;;;;17.13;41.75;103463.94;6319269;22;20280;-82
2022/03/20 02:16:24;;;;;;;;;;;;;;;17.11;41.84;103455.19;6346941;22;19914;-83
2022/03/20 02:18:50;;;;;;;;;;;;;;;17.12;41.69;103448.28;6321204;22;19989;-82
2022/03/20 02:21:15;;;;;;;;;;;;;;;17.12;41.77;103458.69;6295018;22;19993;-83
2022/03/20 02:23:41;;;;;;;;;;;;;;;17.11;41.89;103438.69;6345556;22;19911;-82
2022/03/20 02:26:07;;;;;;;;;;;;;;;17.11;41.78;103428.28;6347544;22;19910;-85
2022/03/20 02:28:32;;;;;;;;;;;;;;;17.10;41.72;103431.75;6294875;22;19917;-83
2022/03/20 02:30:57;;;;;;;;;;;;;;;17.10;41.68;103431.75;6291574;22;19915;-82
2022/03/20 02:33:27;;;;;;;;;;;;;;;17.10;41.84;103419.59;6320786;22;19910;-84
2022/03/20 02:35:53;;;;;;;;;;;;;;;17.09;41.79;103422.16;6319694;22;19911;-82
2022/03/20 02:38:20;;;;;;;;;;;;;;;17.08;41.78;103408.25;6314705;22;19914;-82
2022/03/20 02:40:45;;;;;;;;;;;;;;;17.09;41.76;103411.75;6342391;22;19914;-83
2022/03/20 02:43:11;;;;;;;;;;;;;;;17.08;41.95;103412.59;6341811;22;19918;-77
2022/03/20 02:45:38;;;;;;;;;;;;;;;17.09;41.84;103410.03;6341348;22;20214;-77
2022/03/20 02:48:06;;;;;;;;;;;;;;;17.07;41.76;103406.47;6313809;22;19907;-77
2022/03/20 02:50:32;;;;;;;;;;;;;;;17.08;41.68;103402.19;6341338;22;20322;-77
2022/03/20 02:53:02;;;;;;;;;;;;;;;17.06;41.69;103403.00;6341095;22;19915;-77
2022/03/20 02:55:35;;;;;;;;;;;;;;;17.05;41.64;103398.66;6341366;22;19906;-77
2022/03/20 02:58:01;;;;;;;;;;;;;;;17.05;41.62;103390.84;6341055;22;20376;-77
2022/03/20 03:00:28;;;;;;;;;;;;;;;17.05;41.64;103393.44;6340898;22;19907;-77
2022/03/20 03:02:54;;;;;;;;;;;;;;;17.04;41.83;103382.97;6313289;22;19910;-77
2022/03/20 03:05:20;;;;;;;;;;;;;;;17.03;41.76;103379.50;6341703;22;19981;-82
2022/03/20 03:13:15;;;;;;;;;;;;;;;17.04;41.77;103370.84;6341898;22;19913;-82
2022/03/20 03:15:41;;;;;;;;;;;;;;;17.03;41.75;103358.69;6341087;22;19915;-82
2022/03/20 03:18:07;;;;;;;;;;;;;;;17.02;41.76;103356.91;6341863;22;20308;-81
2022/03/20 03:20:32;;;;;;;;;;;;;;;17.02;41.82;103359.50;6313626;22;19906;-82
2022/03/20 03:22:58;;;;;;;;;;;;;;;17.01;41.63;103357.75;6313576;22;19914;-82
2022/03/20 03:25:24;;;;;;;;;;;;;;;17.02;41.79;103350.81;6341555;22;19932;-82
2022/03/20 03:27:50;;;;;;;;;;;;;;;17.01;41.88;103349.94;6313879;22;19984;-82
2022/03/20 03:30:15;;;;;;;;;;;;;;;17.01;41.65;103349.06;6313992;22;19928;-83
2022/03/20 03:32:41;;;;;;;;;;;;;;;17.01;41.77;103346.47;6341455;22;19910;-82
2022/03/20 03:37:51;;;;;;;;;;;;;;;16.99;41.62;103346.41;6346463;22;19914;-83
2022/03/20 03:40:16;;;;;;;;;;;;;;;16.99;41.81;103343.81;6320625;22;19911;-82
2022/03/20 03:42:42;;;;;;;;;;;;;;;16.99;41.52;103342.94;6318176;22;19932;-82
2022/03/20 03:45:08;;;;;;;;;;;;;;;16.98;41.74;103339.41;6290231;22;19915;-82
2022/03/20 03:47:34;;;;;;;;;;;;;;;16.99;41.73;103337.72;6315990;22;19917;-81
2022/03/20 03:49:59;;;;;;;;;;;;;;;16.97;41.85;103326.38;6314506;22;19911;-83
2022/03/20 03:52:24;;;;;;;;;;;;;;;16.98;41.71;103328.13;6314364;22;19917;-81
2022/03/20 03:54:49;;;;;;;;;;;;;;;16.98;41.66;103322.94;6288479;22;19985;-82
2022/03/20 03:57:18;;;;;;;;;;;;;;;16.98;41.76;103325.53;6341958;22;19911;-82
2022/03/20 03:59:43;;;;;;;;;;;;;;;16.96;41.83;103322.91;6342964;22;19907;-81
2022/03/20 04:02:08;;;;;;;;;;;;;;;16.96;41.57;103320.31;6342510;22;19963;-82
2022/03/20 04:04:33;;;;;;;;;;;;;;;16.95;41.62;103321.13;6289749;22;19910;-82
2022/03/20 04:06:58;;;;;;;;;;;;;;;16.93;41.66;103307.19;6292491;22;19917;-82
2022/03/20 04:09:24;;;;;;;;;;;;;;;16.94;41.55;103306.38;6319852;22;19997;-82
2022/03/20 04:11:49;;;;;;;;;;;;;;;16.94;41.61;103306.38;6321458;22;19968;-84
2022/03/20 04:14:14;;;;;;;;;;;;;;;16.94;41.57;103290.75;6317277;22;19911;-81
2022/03/20 04:16:40;;;;;;;;;;;;;;;16.93;41.54;103281.19;6314490;22;19954;-81
2022/03/20 04:19:05;;;;;;;;;;;;;;;16.93;41.51;103280.31;6288424;22;19915;-81
2022/03/20 04:21:30;;;;;;;;;;;;;;;16.92;41.48;103274.22;6288098;22;19915;-81
2022/03/20 04:23:56;;;;;;;;;;;;;;;16.93;41.61;103281.19;6288043;22;19911;-82
2022/03/20 04:26:22;;;;;;;;;;;;;;;16.94;41.65;103292.47;6313999;22;19917;-81
2022/03/20 04:28:48;;;;;;;;;;;;;;;16.93;41.43;103278.56;6314287;22;20020;-81
2022/03/20 04:31:16;;;;;;;;;;;;;;;16.93;41.43;103277.69;6288023;22;20230;-83
2022/03/20 04:33:50;;;;;;;;;;;;;;;16.92;41.51;103265.50;6314196;22;19906;-81
2022/03/20 04:36:16;;;;;;;;;;;;;;;16.91;41.48;103275.03;6341704;22;20311;-82
2022/03/20 04:38:41;;;;;;;;;;;;;;;16.91;41.66;103271.56;6288495;22;20341;-81
2022/03/20 04:41:06;;;;;;;;;;;;;;;16.91;41.37;103276.75;6341986;22;19921;-82
2022/03/20 04:43:32;;;;;;;;;;;;;;;16.91;41.55;103269.84;6314152;22;20329;-82
2022/03/20 04:45:57;;;;;;;;;;;;;;;16.90;41.47;103270.69;6342075;22;19917;-81
2022/03/20 04:59:19;;;;;;;;;;;;;;;16.89;41.54;103242.91;6344720;22;20285;-82
2022/03/20 05:01:44;;;;;;;;;;;;;;;16.88;41.52;103232.47;6316878;22;19910;-81
2022/03/20 05:04:09;;;;;;;;;;;;;;;16.88;41.44;103232.47;6316328;22;19906;-81
2022/03/20 05:06:35;;;;;;;;;;;;;;;16.85;41.50;103239.34;6317035;22;19911;-81
2022/03/20 05:14:28;;;;;;;;;;;;;;;16.84;41.36;103221.94;6320312;22;19963;-77
2022/03/20 05:16:53;;;;;;;;;;;;;;;16.85;41.38;103225.44;6341773;22;19919;-77
2022/03/20 05:19:19;;;;;;;;;;;;;;;16.84;41.31;103221.94;6341522;22;19911;-78
2022/03/20 05:21:44;;;;;;;;;;;;;;;16.84;41.49;103208.94;6314708;22;19914;-78
2022/03/20 05:24:13;;;;;;;;;;;;;;;16.84;41.38;103210.66;6316248;22;19918;-77
2022/03/20 05:26:38;;;;;;;;;;;;;;;16.83;41.49;103203.69;6315047;22;19914;-77
2022/03/20 05:29:03;;;;;;;;;;;;;;;16.82;41.33;103202.81;6315613;22;20357;-81
2022/03/20 05:31:29;;;;;;;;;;;;;;;16.83;41.31;103190.69;6344334;22;19907;-82
2022/03/20 05:33:55;;;;;;;;;;;;;;;16.82;41.41;103186.34;6317252;22;20374;-81
2022/03/20 05:36:20;;;;;;;;;;;;;;;16.81;41.37;103192.34;6344107;22;19918;-82
2022/03/20 05:38:45;;;;;;;;;;;;;;;16.81;41.45;103190.66;6290555;22;19911;-81
2022/03/20 05:44:11;;;;;;;;;;;;;;;16.82;41.41;103181.13;6256568;22;19910;-81
2022/03/20 05:46:36;;;;;;;;;;;;;;;16.80;41.36;103175.88;6317007;22;19921;-81
2022/03/20 05:49:01;;;;;;;;;;;;;;;16.80;41.24;103164.59;6344637;22;19907;-81
2022/03/20 05:51:27;;;;;;;;;;;;;;;16.81;41.26;103168.94;6321032;22;19977;-82
2022/03/20 05:53:52;;;;;;;;;;;;;;;16.81;41.27;103164.66;6320368;22;19964;-83
2022/03/20 05:59:01;;;;;;;;;;;;;;;16.83;41.21;103180.28;6326296;22;19934;-82
2022/03/20 06:01:26;;;;;;;;;;;;;;;16.83;41.02;103180.28;6292652;22;20327;-81
2022/03/20 06:03:52;;;;;;;;;;;;;;;16.82;41.07;103170.72;6317624;22;19910;-82
2022/03/20 06:06:17;;;;;;;;;;;;;;;16.82;41.04;103162.94;6317432;22;19964;-82
2022/03/20 06:08:43;;;;;;;;;;;;;;;16.84;41.07;103166.47;6315608;22;19910;-82
2022/03/20 06:11:08;;;;;;;;;;;;;;;16.82;41.24;103150.81;6314954;22;20388;-81
2022/03/20 06:13:35;;;;;;;;;;;;;;;16.84;41.05;103163.88;6315912;22;19910;-82
2022/03/20 06:16:01;;;;;;;;;;;;;;;16.83;41.13;103154.28;6288520;22;19926;-82
2022/03/20 06:18:27;;;;;;;;;;;;;;;16.85;41.01;103150.00;6288841;22;19911;-82
2022/03/20 06:20:53;;;;;;;;;;;;;;;16.86;40.92;103154.38;6315013;22;20224;-82
2022/03/20 06:23:18;;;;;;;;;;;;;;;16.85;40.85;103144.81;6314509;22;20004;-81
2022/03/20 06:25:43;;;;;;;;;;;;;;;16.86;40.75;103142.25;6342088;22;19942;-77
2022/03/20 06:28:08;;;;;;;;;;;;;;;16.87;40.80;103145.75;6341280;22;20334;-77
2022/03/20 06:30:34;;;;;;;;;;;;;;;16.88;41.00;103141.44;6313518;22;20072;-77
2022/03/20 06:33:02;;;;;;;;;;;;;;;16.88;40.88;103128.44;6313768;22;19907;-77
2022/03/20 06:35:30;;;;;;;;;;;;;;;16.89;40.78;103132.78;6314223;22;19943;-77
2022/03/20 06:37:55;;;;;;;;;;;;;;;16.90;40.85;103127.66;6341158;22;19914;-77
2022/03/20 06:40:21;;;;;;;;;;;;;;;16.91;40.65;103126.78;6287780;22;19911;-77
2022/03/20 06:42:46;;;;;;;;;;;;;;;16.91;40.81;103119.00;6313518;22;19910;-78
2022/03/20 06:45:12;;;;;;;;;;;;;;;16.91;40.72;103123.31;6313692;22;19917;-77
2022/03/20 06:47:38;;;;;;;;;;;;;;;16.89;40.75;103128.47;6313681;22;19906;-77
2022/03/20 06:50:04;;;;;;;;;;;;;;;16.90;40.80;103127.66;6314526;22;19907;-82
2022/03/20 06:52:30;;;;;;;;;;;;;;;16.88;40.95;103129.31;6342588;22;20315;-82
2022/03/20 06:54:59;;;;;;;;;;;;;;;16.88;40.95;103125.84;6315414;22;19911;-82
2022/03/20 06:57:28;;;;;;;;;;;;;;;16.86;40.93;103120.59;6314517;22;20335;-77
2022/03/20 06:59:55;;;;;;;;;;;;;;;16.84;40.86;103127.47;6313683;22;19911;-82
2022/03/20 07:02:21;;;;;;;;;;;;;;;16.83;40.71;103120.47;6314140;22;19932;-82
2022/03/20 07:04:50;;;;;;;;;;;;;;;16.82;40.76;103126.53;6314018;22;19907;-82
2022/03/20 07:07:16;;;;;;;;;;;;;;;16.83;40.72;103130.88;6314868;22;20390;-82
2022/03/20 07:09:42;;;;;;;;;;;;;;;16.82;40.60;103122.19;6316644;22;19907;-82
2022/03/20 07:12:08;;;;;;;;;;;;;;;16.82;40.80;103119.59;6316324;22;19941;-82
2022/03/20 07:14:34;;;;;;;;;;;;;;;16.83;40.67;103116.19;6314685;22;19914;-82
2022/03/20 07:16:59;;;;;;;;;;;;;;;16.84;40.76;103114.44;6314431;22;19919;-82
2022/03/20 07:19:25;;;;;;;;;;;;;;;16.85;40.67;103116.19;6341220;22;19918;-82
2022/03/20 07:21:51;;;;;;;;;;;;;;;16.84;40.74;103109.25;6341424;22;19914;-81
2022/03/20 07:24:16;;;;;;;;;;;;;;;16.83;40.71;103116.19;6314752;22;20216;-82
2022/03/20 07:29:31;;;;;;;;;;;;;;;16.82;40.60;103090.13;6347441;22;20242;-78
2022/03/20 07:32:04;;;;;;;;;;;;;;;16.82;40.76;103097.91;6315985;22;19954;-77
2022/03/20 07:34:29;;;;;;;;;;;;;;;16.81;40.61;103081.44;6314047;22;19913;-77
2022/03/20 07:36:55;;;;;;;;;;;;;;;16.81;40.70;103072.72;6340909;22;19911;-77
2022/03/20 07:39:20;;;;;;;;;;;;;;;16.85;40.52;103065.09;6313014;22;20238;-79
2022/03/20 07:41:45;;;;;;;;;;;;;;;17.11;40.25;103064.06;6312738;22;19915;-77
2022/03/20 07:44:11;;;;;;;;;;;;;;;17.21;40.01;103060.88;6340479;22;19915;-77
2022/03/20 07:46:36;;;;;;;;;;;;;;;17.18;39.71;103060.78;6312638;22;19910;-77
2022/03/20 07:49:02;;;;;;;;;;;;;;;17.16;39.88;103057.25;6340400;22;20311;-77
2022/03/20 07:51:30;;;;;;;;;;;;;;;17.18;39.86;103048.69;6312564;22;19917;-77
2022/03/20 07:53:55;;;;;;;;;;;;;;;17.14;39.91;103041.63;6340081;22;20004;-77
2022/03/20 07:56:22;;;;;;;;;;;;;;;17.13;39.99;103044.16;6312964;22;19914;-78
2022/03/20 07:58:47;;;;;;;;;;;;;;;17.13;40.04;103049.38;6340279;22;19910;-77
2022/03/20 08:01:13;;;;;;;;;;;;;;;17.13;39.82;103050.25;6312370;22;20238;-77
2022/03/20 08:03:40;;;;;;;;;;;;;;;17.18;39.73;103043.47;6286750;22;19910;-77
2022/03/20 08:06:07;;;;;;;;;;;;;;;17.35;39.45;103036.09;6287572;22;19911;-76
2022/03/20 08:08:33;;;;;;;;;;;;;;;17.35;39.70;103030.88;6312150;22;19906;-77
2022/03/20 08:10:58;;;;;;;;;;;;;;;17.50;39.45;103029.53;6312580;22;20025;-77
2022/03/20 08:13:23;;;;;;;;;;;;;;;17.55;39.26;103036.63;6311985;22;19910;-77
2022/03/20 08:15:49;;;;;;;;;;;;;;;17.56;39.47;103027.09;6285850;22;19925;-77
2022/03/20 08:18:15;;;;;;;;;;;;;;;17.60;39.19;103014.19;6340023;22;19915;-77
2022/03/20 08:20:42;;;;;;;;;;;;;;;17.61;39.16;103020.28;6312115;22;19990;-77
2022/03/20 08:23:07;;;;;;;;;;;;;;;17.61;39.23;103008.13;6314095;22;19922;-77
2022/03/20 08:25:33;;;;;;;;;;;;;;;17.62;39.35;103007.31;6314318;22;20327;-78
2022/03/20 08:27:58;;;;;;;;;;;;;;;17.57;39.19;102998.50;6314041;22;19918;-77
2022/03/20 08:30:24;;;;;;;;;;;;;;;17.56;39.32;102996.72;6341897;22;19907;-77
2022/03/20 08:32:52;;;;;;;;;;;;;;;17.56;39.25;102998.47;6341852;22;19981;-77
2022/03/20 08:35:18;;;;;;;;;;;;;;;17.52;39.16;103005.28;6314312;22;19956;-78
2022/03/20 08:37:44;;;;;;;;;;;;;;;17.52;39.28;102994.00;6314205;22;19911;-77
2022/03/20 08:40:17;;;;;;;;;;;;;;;17.42;39.47;102993.78;6314376;22;19907;-78
2022/03/20 08:42:43;;;;;;;;;;;;;;;17.36;39.70;102993.63;6342021;22;20356;-77
2022/03/20 08:45:08;;;;;;;;;;;;;;;17.36;39.70;102988.41;6314711;22;19921;-77
2022/03/20 08:47:37;;;;;;;;;;;;;;;17.26;39.72;102976.88;6314523;22;19993;-78
2022/03/20 08:50:02;;;;;;;;;;;;;;;17.30;39.51;102977.84;6317098;22;19907;-77
2022/03/20 08:52:27;;;;;;;;;;;;;;;17.36;39.49;102983.22;6346609;22;19922;-77
2022/03/20 08:54:53;;;;;;;;;;;;;;;17.28;39.70;102990.81;6315535;22;19906;-77
2022/03/20 08:57:19;;;;;;;;;;;;;;;17.27;39.71;102985.59;6342375;22;20258;-78
2022/03/20 08:59:44;;;;;;;;;;;;;;;17.25;39.69;102969.94;6288648;22;19914;-77
2022/03/20 09:02:09;;;;;;;;;;;;;;;17.21;39.56;102959.41;6314236;22;19915;-78
2022/03/20 09:04:34;;;;;;;;;;;;;;;17.15;39.63;102960.13;6288387;22;19957;-77
2022/03/20 09:07:00;;;;;;;;;;;;;;;17.16;39.59;102954.09;6288164;22;20321;-78
2022/03/20 09:09:25;;;;;;;;;;;;;;;17.20;39.57;102960.22;6313655;22;20327;-77
2022/03/20 09:11:50;;;;;;;;;;;;;;;17.21;39.44;102965.47;6313937;22;19985;-77
2022/03/20 09:14:16;;;;;;;;;;;;;;;17.20;39.51;102966.34;6288336;22;19918;-77
2022/03/20 09:19:26;;;;;;;;;;;;;;;17.20;39.26;102966.34;6341822;22;19913;-77
2022/03/20 09:21:51;;;;;;;;;;;;;;;17.19;39.72;102945.47;6341291;22;19910;-78
2022/03/20 09:24:17;;;;;;;;;;;;;;;17.22;39.39;102948.13;6288191;22;19917;-77
2022/03/20 09:26:43;;;;;;;;;;;;;;;17.24;39.52;102947.34;6341229;22;19906;-77
2022/03/20 09:29:08;;;;;;;;;;;;;;;17.19;39.57;102927.25;6313858;22;20220;-78
2022/03/20 09:31:34;;;;;;;;;;;;;;;17.18;39.14;102929.00;6313656;22;19993;-78
2022/03/20 09:34:01;;;;;;;;;;;;;;;17.15;39.86;102915.00;6341170;22;20311;-78
2022/03/20 09:36:26;;;;;;;;;;;;;;;17.15;39.43;102902.88;6313755;22;19911;-78
2022/03/20 09:38:52;;;;;;;;;;;;;;;17.12;39.29;102902.81;6341165;22;19906;-77
2022/03/20 09:41:17;;;;;;;;;;;;;;;17.10;39.36;102906.22;6313821;22;19915;-78
2022/03/20 09:43:43;;;;;;;;;;;;;;;17.03;39.74;102885.25;6313947;22;19964;-77
2022/03/20 09:46:09;;;;;;;;;;;;;;;17.03;39.52;102894.78;6341475;22;19910;-78
2022/03/20 09:48:34;;;;;;;;;;;;;;;17.02;39.50;102886.06;6314642;22;20212;-82
2022/03/20 09:51:00;;;;;;;;;;;;;;;17.02;39.50;102890.41;6314801;22;19956;-82
2022/03/20 09:53:26;;;;;;;;;;;;;;;16.99;39.81;102901.63;6342205;22;19911;-82
2022/03/20 09:55:55;;;;;;;;;;;;;;;16.96;39.69;102914.56;6314409;22;19906;-82
2022/03/20 09:58:23;;;;;;;;;;;;;;;16.94;39.78;102929.25;6341943;22;19918;-81
2022/03/20 10:00:48;;;;;;;;;;;;;;;16.93;39.36;102945.66;6314387;22;19915;-82
2022/03/20 10:03:15;;;;;;;;;;;;;;;16.94;39.79;102930.94;6341625;22;19918;-82
2022/03/20 10:05:40;;;;;;;;;;;;;;;16.95;39.45;102935.31;6341617;22;19906;-82
2022/03/20 10:08:10;;;;;;;;;;;;;;;16.94;39.60;102936.13;6314503;22;19932;-82
2022/03/20 10:10:36;;;;;;;;;;;;;;;16.93;39.77;102935.25;6315156;22;19910;-82
2022/03/20 10:13:01;;;;;;;;;;;;;;;16.91;39.57;102929.13;6288266;22;19911;-82
2022/03/20 10:15:31;;;;;;;;;;;;;;;16.92;39.59;102932.59;6288565;22;20331;-82
2022/03/20 10:18:09;;;;;;;;;;;;;;;16.94;39.69;102933.53;6313764;22;20006;-82
2022/03/20 10:20:36;;;;;;;;;;;;;;;16.95;39.54;102928.38;6341967;22;20025;-82
2022/03/20 10:23:01;;;;;;;;;;;;;;;16.94;39.42;102917.94;6313974;22;19910;-81
2022/03/20 10:25:26;;;;;;;;;;;;;;;16.93;39.73;102910.97;6314154;22;19934;-82
2022/03/20 10:27:58;;;;;;;;;;;;;;;16.94;39.52;102916.22;6313978;22;19917;-82
2022/03/20 10:30:24;;;;;;;;;;;;;;;16.94;39.63;102905.84;6342000;22;19959;-81
2022/03/20 10:32:49;;;;;;;;;;;;;;;16.93;39.57;102891.06;6341902;22;19948;-82
2022/03/20 10:35:17;;;;;;;;;;;;;;;16.97;39.62;102881.63;6314562;22;19963;-77
2022/03/20 10:37:46;;;;;;;;;;;;;;;17.05;39.60;102880.97;6291770;22;19918;-78
2022/03/20 10:40:13;;;;;;;;;;;;;;;17.09;39.52;102881.91;6316466;22;19914;-78
2022/03/20 10:42:38;;;;;;;;;;;;;;;17.12;39.46;102852.50;6316307;22;20339;-78
2022/03/20 10:45:07;;;;;;;;;;;;;;;17.13;39.26;102841.25;6313608;22;19906;-78
2022/03/20 10:47:32;;;;;;;;;;;;;;;17.09;39.46;102832.47;6313436;22;19969;-77
2022/03/20 10:50:06;;;;;;;;;;;;;;;17.09;39.76;102819.47;6314041;22;19910;-78
2022/03/20 10:52:32;;;;;;;;;;;;;;;17.08;39.43;102802.13;6342069;22;19907;-78
2022/03/20 10:54:58;;;;;;;;;;;;;;;17.09;39.44;102797.78;6315595;22;19914;-78
2022/03/20 10:57:31;;;;;;;;;;;;;;;17.06;39.35;102790.81;6315757;22;19911;-78
2022/03/20 10:59:58;;;;;;;;;;;;;;;17.09;39.28;102808.19;6316150;22;20030;-78
2022/03/20 11:02:24;;;;;;;;;;;;;;;17.11;39.35;102828.19;6345256;22;19910;-78
2022/03/20 11:04:50;;;;;;;;;;;;;;;17.12;39.56;102823.91;6317783;22;19907;-78
2022/03/20 11:07:19;;;;;;;;;;;;;;;17.17;39.05;102830.06;6318930;22;19938;-79
2022/03/20 11:09:52;;;;;;;;;;;;;;;17.17;39.17;102827.47;6343501;22;19982;-78
2022/03/20 11:12:21;;;;;;;;;;;;;;;17.14;39.13;102823.09;6344309;22;19913;-78
2022/03/20 11:14:47;;;;;;;;;;;;;;;17.11;39.29;102824.72;6344458;22;19907;-78
2022/03/20 11:17:17;;;;;;;;;;;;;;;17.06;39.47;102828.09;6316909;22;19925;-78
2022/03/20 11:19:47;;;;;;;;;;;;;;;17.03;39.48;102847.97;6317578;22;19954;-78
2022/03/20 11:22:14;;;;;;;;;;;;;;;17.00;39.29;102850.47;6313350;22;19959;-78
2022/03/20 11:24:41;;;;;;;;;;;;;;;16.95;39.47;102858.16;6313325;22;19989;-78
2022/03/20 11:27:08;;;;;;;;;;;;;;;16.94;39.48;102871.13;6340952;22;19906;-78
2022/03/20 11:29:42;;;;;;;;;;;;;;;16.94;39.37;102863.31;6313752;22;19962;-78
2022/03/20 11:32:08;;;;;;;;;;;;;;;16.90;39.75;102864.97;6312904;22;19956;-78
2022/03/20 11:34:33;;;;;;;;;;;;;;;16.89;39.50;102868.41;6312999;22;20235;-78
2022/03/20 11:37:00;;;;;;;;;;;;;;;16.88;39.58;102865.78;6340633;22;20238;-79
2022/03/20 11:39:25;;;;;;;;;;;;;;;16.85;39.53;102876.97;6312917;22;19906;-77
2022/03/20 11:42:11;;;;;;;;;;;;;;;16.85;39.73;102890.88;6340600;22;19975;-78
2022/03/20 11:44:36;;;;;;;;;;;;;;;16.84;39.85;102868.28;6319491;22;19955;-82
2022/03/20 11:47:27;;;;;;;;;;;;;;;16.85;39.86;102884.75;6313268;22;19977;-78
2022/03/20 11:50:08;;;;;;;;;;;;;;;16.84;39.74;102880.41;6340811;22;19989;-82
2022/03/20 11:52:45;;;;;;;;;;;;;;;16.83;39.84;102894.25;6312944;22;19906;-78
2022/03/20 11:55:30;;;;;;;;;;;;;;;16.83;39.86;102889.94;6340537;22;19906;-78
2022/03/20 11:57:57;;;;;;;;;;;;;;;16.85;39.66;102883.06;6312731;22;19907;-78
2022/03/20 12:00:27;;;;;;;;;;;;;;;16.87;39.84;102880.47;6341256;22;19985;-82
2022/03/20 12:03:09;;;;;;;;;;;;;;;16.89;39.74;102871.00;6314668;22;20238;-82
2022/03/20 12:05:41;;;;;;;;;;;;;;;16.91;39.70;102863.25;6316363;22;19911;-83
2022/03/20 12:08:18;;;;;;;;;;;;;;;16.92;39.79;102862.41;6315485;22;19929;-82
2022/03/20 12:11:01;;;;;;;;;;;;;;;16.93;39.98;102865.03;6313803;22;19938;-82
2022/03/20 12:13:38;;;;;;;;;;;;;;;16.93;39.85;102858.97;6314043;22;19952;-83
2022/03/20 12:16:04;;;;;;;;;;;;;;;16.93;39.83;102848.56;6340897;22;19932;-82
2022/03/20 12:18:49;;;;;;;;;;;;;;;16.94;39.79;102843.41;6313250;22;19910;-82
2022/03/20 12:21:15;;;;;;;;;;;;;;;17.02;39.78;102844.47;6315230;22;19997;-82
2022/03/20 12:23:43;;;;;;;;;;;;;;;17.02;39.90;102844.47;6349210;22;19911;-82
2022/03/20 12:26:31;;;;;;;;;;;;;;;17.00;39.84;102848.75;6343569;22;19910;-83
2022/03/20 12:29:35;;;;;;;;;;;;;;;17.00;39.90;102861.75;6313375;22;20645;-82
2022/03/20 12:32:12;;;;;;;;;;;;;;;16.99;39.63;102840.91;6215505;23;19938;-83
2022/03/20 12:34:38;;;;;;;;;;;;;;;16.99;39.96;102841.78;6189893;23;19908;-82
2022/03/20 12:37:22;;;;;;;;;;;;;;;17.04;39.99;102839.31;6283750;22;20378;-82
2022/03/20 12:39:52;;;;;;;;;;;;;;;17.03;39.86;102837.56;6312995;22;19941;-83
2022/03/20 12:42:17;;;;;;;;;;;;;;;17.03;39.87;102829.75;6340572;22;19982;-83
2022/03/20 12:44:47;;;;;;;;;;;;;;;17.05;39.91;102830.69;6313031;22;19929;-82
2022/03/20 12:47:12;;;;;;;;;;;;;;;17.06;39.67;102828.09;6312644;22;19910;-82
2022/03/20 12:49:41;;;;;;;;;;;;;;;17.05;39.81;102815.94;6340650;22;20020;-82
2022/03/20 12:52:06;;;;;;;;;;;;;;;17.04;39.89;102821.09;6313176;22;20281;-82
2022/03/20 12:54:32;;;;;;;;;;;;;;;17.03;39.83;102814.16;6287795;22;19911;-83
2022/03/20 12:57:01;;;;;;;;;;;;;;;17.07;40.04;102815.94;6340963;22;19910;-82
2022/03/20 12:59:26;;;;;;;;;;;;;;;17.08;40.15;102824.66;6312947;22;19910;-83
2022/03/20 13:01:52;;;;;;;;;;;;;;;17.10;39.80;102823.84;6312722;22;19960;-83
2022/03/20 13:04:19;;;;;;;;;;;;;;;17.11;40.00;102816.91;6340912;22;19913;-84
2022/03/20 13:06:44;;;;;;;;;;;;;;;17.09;40.14;102813.41;6340664;22;19907;-82
2022/03/20 13:09:10;;;;;;;;;;;;;;;17.08;40.09;102803.84;6314868;22;19913;-83